Time;durP1;ratioP1;P1;durP2;ratioP2;P2;SDS_P1;SDS_P2;PMS_P1;PMS_P2;Temp;Humidity;BMP_temperature;BMP_pressure;BME280_temperature;BME280_humidity;BME280_pressure;Samples;Min_cycle;Max_cycle;Signal;HPM_P1;HPM_P2
2022/04/20 00:00:22;;;;;;;;;;;6.00;99.90;;;;;;5157712;27;20400;-75
2022/04/20 00:02:47;;;;;;;;;;;6.00;99.90;;;;;;5157164;27;19914;-76
2022/04/20 00:05:13;;;;;;;;;;;6.00;99.90;;;;;;5157582;27;19907;-75
2022/04/20 00:07:39;;;;;;;;;;;5.90;99.90;;;;;;5157082;27;20426;-75
2022/04/20 00:10:05;;;;;;;;;;;5.80;99.90;;;;;;5157256;27;19998;-75
2022/04/20 00:12:31;;;;;;;;;;;5.90;99.90;;;;;;5157107;27;19914;-76
2022/04/20 00:14:56;;;;;;;;;;;5.80;99.90;;;;;;5157125;27;19907;-75
2022/04/20 00:17:22;;;;;;;;;;;5.90;99.90;;;;;;5157219;27;20383;-75
2022/04/20 00:19:48;;;;;;;;;;;5.90;99.90;;;;;;5156419;27;19916;-75
2022/04/20 00:22:13;;;;;;;;;;;5.90;99.90;;;;;;5157039;27;20259;-75
2022/04/20 00:24:39;;;;;;;;;;;5.80;99.90;;;;;;5157549;27;19914;-75
2022/04/20 00:27:04;;;;;;;;;;;5.80;99.90;;;;;;5156240;27;19907;-75
2022/04/20 00:29:30;;;;;;;;;;;5.80;99.90;;;;;;5156813;27;19914;-75
2022/04/20 00:31:55;;;;;;;;;;;5.70;99.90;;;;;;5156415;27;19908;-75
2022/04/20 00:34:22;;;;;;;;;;;5.60;99.90;;;;;;5157073;27;19908;-75
2022/04/20 00:36:51;;;;;;;;;;;5.50;99.90;;;;;;5137870;27;19914;-75
2022/04/20 00:39:16;;;;;;;;;;;5.40;99.90;;;;;;5157084;27;19915;-75
2022/04/20 00:41:42;;;;;;;;;;;5.50;99.90;;;;;;5156006;27;19930;-75
2022/04/20 00:44:09;;;;;;;;;;;5.50;99.90;;;;;;5156240;27;19960;-76
2022/04/20 00:46:35;;;;;;;;;;;5.50;99.90;;;;;;5156667;27;19937;-75
2022/04/20 00:49:01;;;;;;;;;;;5.60;99.90;;;;;;5155989;27;19918;-75
2022/04/20 00:51:29;;;;;;;;;;;5.60;99.90;;;;;;5155875;27;19907;-75
2022/04/20 00:53:57;;;;;;;;;;;5.60;99.90;;;;;;5156132;27;19907;-75
2022/04/20 00:56:23;;;;;;;;;;;5.70;99.90;;;;;;5156276;27;20316;-75
2022/04/20 00:58:48;;;;;;;;;;;5.70;99.90;;;;;;5155692;27;20018;-75
2022/04/20 01:01:14;;;;;;;;;;;5.80;99.90;;;;;;5156447;27;20271;-75
2022/04/20 01:03:40;;;;;;;;;;;5.80;99.90;;;;;;5156216;27;20013;-75
2022/04/20 01:06:06;;;;;;;;;;;5.80;99.90;;;;;;5155502;27;19915;-75
2022/04/20 01:08:31;;;;;;;;;;;5.80;99.90;;;;;;5156130;27;19911;-75
2022/04/20 01:10:57;;;;;;;;;;;5.80;99.90;;;;;;5155502;27;20313;-75
2022/04/20 01:13:23;;;;;;;;;;;5.80;99.90;;;;;;5155944;27;19913;-75
2022/04/20 01:15:49;;;;;;;;;;;5.70;99.90;;;;;;5137132;27;19911;-75
2022/04/20 01:18:15;;;;;;;;;;;5.60;99.90;;;;;;5156422;27;19959;-75
2022/04/20 01:20:41;;;;;;;;;;;5.50;99.90;;;;;;5156061;27;19923;-75
2022/04/20 01:23:07;;;;;;;;;;;5.40;99.90;;;;;;5155591;27;20265;-75
2022/04/20 01:25:32;;;;;;;;;;;5.10;99.90;;;;;;5156093;27;20237;-75
2022/04/20 01:27:59;;;;;;;;;;;5.10;99.90;;;;;;5155255;27;19907;-75
2022/04/20 01:30:25;;;;;;;;;;;5.00;99.90;;;;;;5155579;27;19919;-75
2022/04/20 01:32:50;;;;;;;;;;;5.00;99.90;;;;;;5155415;27;19907;-75
2022/04/20 01:35:16;;;;;;;;;;;4.90;99.90;;;;;;5155583;27;20378;-75
2022/04/20 01:37:41;;;;;;;;;;;4.80;99.90;;;;;;5137316;27;19907;-75
2022/04/20 01:40:07;;;;;;;;;;;4.80;99.90;;;;;;5155040;27;20360;-75
2022/04/20 01:42:33;;;;;;;;;;;4.70;99.90;;;;;;5155414;27;19907;-76
2022/04/20 01:45:00;;;;;;;;;;;4.70;99.90;;;;;;5153943;27;19960;-75
2022/04/20 01:47:26;;;;;;;;;;;4.70;99.90;;;;;;5137606;27;20304;-75
2022/04/20 01:49:52;;;;;;;;;;;4.60;99.90;;;;;;5155436;27;19913;-75
2022/04/20 01:52:18;;;;;;;;;;;4.50;99.90;;;;;;5155574;27;20333;-75
2022/04/20 01:54:43;;;;;;;;;;;4.50;99.90;;;;;;5154467;27;19972;-74
2022/04/20 01:57:09;;;;;;;;;;;4.60;99.90;;;;;;5136391;27;20005;-75
2022/04/20 01:59:34;;;;;;;;;;;4.60;99.90;;;;;;5155072;27;19915;-75
2022/04/20 02:04:44;;;;;;;;;;;4.70;99.90;;;;;;5155174;27;20002;-75
2022/04/20 02:07:10;;;;;;;;;;;4.70;99.90;;;;;;5155016;27;19955;-75
2022/04/20 02:09:36;;;;;;;;;;;4.70;99.90;;;;;;5155173;27;20351;-75
2022/04/20 02:12:01;;;;;;;;;;;4.70;99.90;;;;;;5154175;27;19907;-75
2022/04/20 02:14:27;;;;;;;;;;;4.70;99.90;;;;;;5154815;27;19914;-75
2022/04/20 02:16:52;;;;;;;;;;;4.80;99.90;;;;;;5154621;27;19962;-75
2022/04/20 02:19:18;;;;;;;;;;;4.70;99.90;;;;;;5154558;27;20414;-75
2022/04/20 02:21:43;;;;;;;;;;;4.70;99.90;;;;;;5154783;27;19907;-75
2022/04/20 02:24:10;;;;;;;;;;;4.60;99.90;;;;;;5154622;27;20436;-75
2022/04/20 02:26:36;;;;;;;;;;;4.60;99.90;;;;;;5136371;27;20319;-75
2022/04/20 02:29:02;;;;;;;;;;;4.50;99.90;;;;;;5154017;27;19990;-75
2022/04/20 02:31:27;;;;;;;;;;;4.40;99.90;;;;;;5154798;27;19907;-75
2022/04/20 02:33:53;;;;;;;;;;;4.40;99.90;;;;;;5154370;27;20044;-75
2022/04/20 02:36:19;;;;;;;;;;;4.30;99.90;;;;;;5154770;27;20019;-75
2022/04/20 02:38:44;;;;;;;;;;;4.10;99.90;;;;;;5136135;27;19915;-75
2022/04/20 02:41:10;;;;;;;;;;;4.10;99.90;;;;;;5154135;27;20521;-75
2022/04/20 02:43:36;;;;;;;;;;;4.10;99.90;;;;;;5154446;27;20410;-75
2022/04/20 02:46:02;;;;;;;;;;;4.10;99.90;;;;;;5153854;27;20356;-75
2022/04/20 02:48:27;;;;;;;;;;;4.20;99.90;;;;;;5154627;27;20342;-75
2022/04/20 02:50:53;;;;;;;;;;;4.10;99.90;;;;;;5153777;27;19907;-75
2022/04/20 02:53:18;;;;;;;;;;;4.20;99.90;;;;;;5154569;27;19960;-75
2022/04/20 02:55:44;;;;;;;;;;;4.20;99.90;;;;;;5154630;27;19969;-75
2022/04/20 02:58:10;;;;;;;;;;;4.30;99.90;;;;;;5153797;27;19911;-75
2022/04/20 03:00:36;;;;;;;;;;;4.30;99.90;;;;;;5154217;27;19915;-75
2022/04/20 03:03:01;;;;;;;;;;;4.30;99.90;;;;;;5153952;27;19907;-76
2022/04/20 03:05:27;;;;;;;;;;;4.30;99.90;;;;;;5154161;27;19959;-75
2022/04/20 03:07:53;;;;;;;;;;;4.30;99.90;;;;;;5157360;27;19939;-75
2022/04/20 03:10:18;;;;;;;;;;;4.20;99.90;;;;;;5158811;27;19911;-75
2022/04/20 03:12:44;;;;;;;;;;;4.20;99.90;;;;;;5158396;27;20465;-76
2022/04/20 03:15:10;;;;;;;;;;;4.20;99.90;;;;;;5157914;27;20263;-76
2022/04/20 03:17:35;;;;;;;;;;;4.10;99.90;;;;;;5158276;27;20272;-76
2022/04/20 03:20:01;;;;;;;;;;;3.90;99.90;;;;;;5157919;27;19915;-75
2022/04/20 03:22:27;;;;;;;;;;;3.80;99.90;;;;;;5158540;27;19911;-75
2022/04/20 03:24:53;;;;;;;;;;;3.80;99.90;;;;;;5158302;27;20279;-75
2022/04/20 03:27:18;;;;;;;;;;;3.90;99.90;;;;;;5158138;27;19917;-75
2022/04/20 03:29:44;;;;;;;;;;;3.90;99.90;;;;;;5139734;27;20371;-76
2022/04/20 03:32:14;;;;;;;;;;;3.90;99.90;;;;;;5157790;27;19907;-75
2022/04/20 03:34:40;;;;;;;;;;;3.90;99.90;;;;;;5158422;27;19929;-75
2022/04/20 03:37:06;;;;;;;;;;;4.00;99.90;;;;;;5157543;27;20366;-75
2022/04/20 03:39:32;;;;;;;;;;;3.90;99.90;;;;;;5157664;27;19923;-75
2022/04/20 03:41:58;;;;;;;;;;;3.90;99.90;;;;;;5157482;27;19907;-74
2022/04/20 03:44:23;;;;;;;;;;;3.90;99.90;;;;;;5158283;27;19952;-75
2022/04/20 03:46:49;;;;;;;;;;;3.90;99.90;;;;;;5158082;27;20051;-75
2022/04/20 03:49:14;;;;;;;;;;;3.80;99.90;;;;;;5157402;27;20044;-74
2022/04/20 03:51:40;;;;;;;;;;;3.80;99.90;;;;;;5157556;27;19914;-75
2022/04/20 03:54:06;;;;;;;;;;;3.90;99.90;;;;;;5157341;27;20387;-75
2022/04/20 03:57:03;;;;;;;;;;;3.90;99.90;;;;;;5157263;27;19926;-74
2022/04/20 03:59:17;;;;;;;;;;;3.80;99.90;;;;;;5136877;27;19923;-75
2022/04/20 04:01:43;;;;;;;;;;;3.80;99.90;;;;;;5137511;27;19907;-75
2022/04/20 04:04:08;;;;;;;;;;;3.90;99.90;;;;;;5136441;27;19911;-75
2022/04/20 04:06:34;;;;;;;;;;;4.00;99.90;;;;;;5136741;27;19911;-75
2022/04/20 04:08:59;;;;;;;;;;;4.00;99.90;;;;;;5136069;27;19959;-75
2022/04/20 04:11:25;;;;;;;;;;;3.90;99.90;;;;;;5136677;27;19908;-75
2022/04/20 04:13:50;;;;;;;;;;;3.90;99.90;;;;;;5136830;27;19982;-75
2022/04/20 04:16:16;;;;;;;;;;;3.80;99.90;;;;;;5117720;27;19915;-75
2022/04/20 04:18:41;;;;;;;;;;;3.80;99.90;;;;;;5136097;27;19929;-75
2022/04/20 04:21:07;;;;;;;;;;;3.70;99.90;;;;;;5135897;27;19907;-75
2022/04/20 04:23:32;;;;;;;;;;;3.70;99.90;;;;;;5136499;27;19908;-75
2022/04/20 04:25:58;;;;;;;;;;;3.70;99.90;;;;;;5117900;27;20394;-75
2022/04/20 04:28:23;;;;;;;;;;;3.60;99.90;;;;;;5136267;27;19914;-74
2022/04/20 04:30:49;;;;;;;;;;;3.50;99.90;;;;;;5136747;27;20051;-75
2022/04/20 04:33:15;;;;;;;;;;;3.50;99.90;;;;;;5135880;27;19914;-74
2022/04/20 04:35:40;;;;;;;;;;;3.50;99.90;;;;;;5136135;27;19907;-75
2022/04/20 04:38:06;;;;;;;;;;;3.40;99.90;;;;;;5135495;27;20392;-75
2022/04/20 04:40:31;;;;;;;;;;;3.40;99.90;;;;;;5136122;27;19922;-75
2022/04/20 04:42:57;;;;;;;;;;;3.20;99.90;;;;;;5136559;27;19908;-75
2022/04/20 04:50:51;;;;;;;;;;;3.20;99.90;;;;;;5135815;27;19961;-75
2022/04/20 04:53:17;;;;;;;;;;;3.20;99.90;;;;;;5135275;27;19907;-74
2022/04/20 04:55:42;;;;;;;;;;;3.20;99.90;;;;;;5135755;27;19920;-74
2022/04/20 04:58:08;;;;;;;;;;;3.30;99.90;;;;;;5135407;27;19915;-75
2022/04/20 05:00:34;;;;;;;;;;;3.30;99.90;;;;;;5135198;27;19916;-75
2022/04/20 05:02:59;;;;;;;;;;;3.40;99.90;;;;;;5116902;27;19994;-75
2022/04/20 05:05:25;;;;;;;;;;;3.40;99.90;;;;;;5135515;27;19984;-74
2022/04/20 05:07:54;;;;;;;;;;;3.40;99.90;;;;;;5135764;27;19967;-75
2022/04/20 05:10:21;;;;;;;;;;;3.40;99.90;;;;;;5134990;27;20588;-75
2022/04/20 05:12:47;;;;;;;;;;;3.40;99.90;;;;;;5135527;27;20359;-75
2022/04/20 05:15:13;;;;;;;;;;;3.40;99.90;;;;;;5134974;27;19907;-75
2022/04/20 05:17:38;;;;;;;;;;;3.30;99.90;;;;;;5135193;27;19911;-75
2022/04/20 05:20:04;;;;;;;;;;;3.30;99.90;;;;;;5134727;27;19922;-75
2022/04/20 05:22:30;;;;;;;;;;;3.30;99.90;;;;;;5135128;27;20229;-75
2022/04/20 05:24:56;;;;;;;;;;;3.20;99.90;;;;;;5135227;27;19911;-75
2022/04/20 05:27:21;;;;;;;;;;;3.20;99.90;;;;;;5134611;27;19918;-75
2022/04/20 05:29:47;;;;;;;;;;;3.10;99.90;;;;;;5134141;27;19907;-74
2022/04/20 05:32:12;;;;;;;;;;;3.00;99.90;;;;;;5116040;27;19907;-75
2022/04/20 05:34:38;;;;;;;;;;;3.00;99.90;;;;;;5116680;27;20093;-75
2022/04/20 05:42:32;;;;;;;;;;;2.90;99.90;;;;;;5134909;27;19915;-75
2022/04/20 05:44:58;;;;;;;;;;;2.80;99.90;;;;;;5135081;27;19908;-74
2022/04/20 05:47:23;;;;;;;;;;;2.90;99.90;;;;;;5134257;27;20450;-74
2022/04/20 05:49:49;;;;;;;;;;;3.00;99.90;;;;;;5134631;27;19918;-74
2022/04/20 05:52:14;;;;;;;;;;;3.00;99.90;;;;;;5134092;27;20353;-74
2022/04/20 05:54:40;;;;;;;;;;;3.10;99.90;;;;;;5134610;27;19914;-74
2022/04/20 05:57:05;;;;;;;;;;;3.30;99.90;;;;;;5134635;27;19998;-75
2022/04/20 05:59:31;;;;;;;;;;;3.40;99.90;;;;;;5134648;27;19919;-74
2022/04/20 06:01:57;;;;;;;;;;;3.60;99.90;;;;;;5134511;27;19956;-75
2022/04/20 06:04:23;;;;;;;;;;;3.80;99.90;;;;;;5133900;27;19907;-74
2022/04/20 06:06:49;;;;;;;;;;;4.00;99.90;;;;;;5134480;27;20468;-74
2022/04/20 06:09:14;;;;;;;;;;;4.10;99.90;;;;;;5133594;27;19915;-74
2022/04/20 06:11:41;;;;;;;;;;;4.20;99.90;;;;;;5134192;27;19908;-74
2022/04/20 06:14:07;;;;;;;;;;;4.40;99.90;;;;;;5133937;27;19907;-73
2022/04/20 06:16:32;;;;;;;;;;;4.60;99.90;;;;;;5134286;27;19914;-73
2022/04/20 06:18:58;;;;;;;;;;;4.70;99.90;;;;;;5134547;27;19999;-73
2022/04/20 06:21:24;;;;;;;;;;;4.70;99.90;;;;;;5133635;27;19907;-74
2022/04/20 06:23:50;;;;;;;;;;;4.80;99.90;;;;;;5134065;27;20379;-74
2022/04/20 06:26:15;;;;;;;;;;;5.00;99.90;;;;;;5133338;27;19914;-73
2022/04/20 06:28:41;;;;;;;;;;;5.10;99.90;;;;;;5134697;27;19908;-74
2022/04/20 06:31:06;;;;;;;;;;;5.20;99.90;;;;;;5133969;27;20367;-74
2022/04/20 06:33:32;;;;;;;;;;;5.20;99.90;;;;;;5133418;27;19915;-74
2022/04/20 06:36:00;;;;;;;;;;;5.30;99.90;;;;;;5133945;27;19907;-74
2022/04/20 06:38:28;;;;;;;;;;;5.50;99.90;;;;;;5115175;27;19907;-74
2022/04/20 06:40:54;;;;;;;;;;;5.60;99.90;;;;;;5133711;27;19998;-73
2022/04/20 06:43:22;;;;;;;;;;;5.80;99.90;;;;;;5133405;27;19911;-74
2022/04/20 06:45:48;;;;;;;;;;;5.90;99.90;;;;;;5134040;27;19937;-74
2022/04/20 06:48:14;;;;;;;;;;;6.00;99.90;;;;;;5133255;27;19908;-73
2022/04/20 06:50:40;;;;;;;;;;;6.20;99.90;;;;;;5133697;27;20371;-74
2022/04/20 06:58:38;;;;;;;;;;;6.40;99.90;;;;;;5133675;28;20330;-73
2022/04/20 07:01:05;;;;;;;;;;;6.70;99.90;;;;;;5133435;28;19915;-73
2022/04/20 07:03:31;;;;;;;;;;;6.90;99.90;;;;;;5132546;28;19907;-73
2022/04/20 07:05:57;;;;;;;;;;;6.90;99.90;;;;;;5133540;28;19914;-73
2022/04/20 07:08:23;;;;;;;;;;;7.10;99.90;;;;;;5114391;28;20341;-73
2022/04/20 07:10:49;;;;;;;;;;;7.20;99.90;;;;;;5133510;28;19915;-73
2022/04/20 07:13:16;;;;;;;;;;;7.30;99.90;;;;;;5132743;28;19908;-73
2022/04/20 07:15:41;;;;;;;;;;;7.40;99.90;;;;;;5132950;28;19908;-73
2022/04/20 07:18:07;;;;;;;;;;;7.50;99.90;;;;;;5132870;28;19908;-73
2022/04/20 07:20:33;;;;;;;;;;;7.50;99.90;;;;;;5132944;28;19915;-73
2022/04/20 07:22:58;;;;;;;;;;;7.70;99.90;;;;;;5133510;28;20363;-73
2022/04/20 07:25:25;;;;;;;;;;;7.80;99.90;;;;;;5132996;28;20248;-73
2022/04/20 07:27:51;;;;;;;;;;;8.00;99.90;;;;;;5133475;28;20381;-74
2022/04/20 07:30:17;;;;;;;;;;;8.00;99.90;;;;;;5128339;27;19908;-74
2022/04/20 07:32:43;;;;;;;;;;;8.10;99.90;;;;;;5144652;27;19907;-74
2022/04/20 07:35:09;;;;;;;;;;;8.10;99.90;;;;;;5134923;27;20264;-73
2022/04/20 07:37:34;;;;;;;;;;;8.30;99.90;;;;;;5153472;27;19907;-74
2022/04/20 07:40:00;;;;;;;;;;;8.50;99.90;;;;;;5152294;27;19915;-73
2022/04/20 07:42:25;;;;;;;;;;;8.60;99.90;;;;;;5138494;27;19912;-74
2022/04/20 07:44:56;;;;;;;;;;;8.70;99.90;;;;;;5150120;27;19958;-74
2022/04/20 07:47:25;;;;;;;;;;;8.90;99.90;;;;;;5153356;27;19907;-73
2022/04/20 07:52:39;;;;;;;;;;;9.20;99.90;;;;;;5153818;27;19953;-73
2022/04/20 07:55:11;;;;;;;;;;;9.30;99.90;;;;;;5157329;27;19963;-74
2022/04/20 07:57:37;;;;;;;;;;;9.50;99.90;;;;;;5157020;27;19907;-74
2022/04/20 08:00:06;;;;;;;;;;;9.70;99.90;;;;;;5157270;27;20359;-74
2022/04/20 08:02:32;;;;;;;;;;;9.70;99.90;;;;;;5156938;27;19955;-74
2022/04/20 08:04:58;;;;;;;;;;;9.90;99.90;;;;;;5156890;27;19950;-75
2022/04/20 08:07:24;;;;;;;;;;;10.10;99.90;;;;;;5156680;27;19953;-73
2022/04/20 08:09:49;;;;;;;;;;;10.30;99.90;;;;;;5156715;27;19946;-73
2022/04/20 08:12:15;;;;;;;;;;;10.40;99.90;;;;;;5156447;27;20275;-73
2022/04/20 08:14:41;;;;;;;;;;;10.50;99.90;;;;;;5156662;27;19911;-73
2022/04/20 08:17:06;;;;;;;;;;;10.40;99.90;;;;;;5157136;27;19907;-74
2022/04/20 08:19:33;;;;;;;;;;;10.30;99.90;;;;;;5156281;27;19936;-74
2022/04/20 08:21:58;;;;;;;;;;;10.50;99.90;;;;;;5156549;27;19911;-73
2022/04/20 08:24:24;;;;;;;;;;;10.70;99.90;;;;;;5156351;27;19907;-74
2022/04/20 08:26:50;;;;;;;;;;;10.60;99.90;;;;;;5156731;27;20023;-74
2022/04/20 08:29:15;;;;;;;;;;;10.80;99.90;;;;;;5156415;27;19907;-74
2022/04/20 08:31:41;;;;;;;;;;;10.80;99.90;;;;;;5156837;27;20400;-74
2022/04/20 08:34:06;;;;;;;;;;;11.00;99.90;;;;;;5156651;27;20485;-74
2022/04/20 08:36:32;;;;;;;;;;;11.10;99.90;;;;;;5154289;27;19908;-73
2022/04/20 08:38:58;;;;;;;;;;;11.10;99.90;;;;;;5155906;27;19907;-73
2022/04/20 08:41:23;;;;;;;;;;;11.20;99.90;;;;;;5155913;27;19907;-74
2022/04/20 08:43:49;;;;;;;;;;;11.50;99.90;;;;;;5156529;27;19911;-74
2022/04/20 08:46:16;;;;;;;;;;;11.60;99.90;;;;;;5155864;27;19913;-74
2022/04/20 08:48:42;;;;;;;;;;;11.70;99.90;;;;;;5156612;27;19914;-74
2022/04/20 08:51:08;;;;;;;;;;;11.80;99.90;;;;;;5156062;27;19907;-74
2022/04/20 08:53:35;;;;;;;;;;;11.90;99.90;;;;;;5155829;27;20511;-74
2022/04/20 08:58:46;;;;;;;;;;;12.00;99.90;;;;;;5156037;27;19914;-74
2022/04/20 09:01:13;;;;;;;;;;;11.90;99.90;;;;;;5156062;27;19915;-74
2022/04/20 09:03:39;;;;;;;;;;;12.00;99.90;;;;;;5155450;27;20112;-74
2022/04/20 09:06:05;;;;;;;;;;;11.90;99.90;;;;;;5155619;27;19907;-74
2022/04/20 09:08:31;;;;;;;;;;;11.90;99.90;;;;;;5137137;27;19907;-74
2022/04/20 09:10:57;;;;;;;;;;;11.90;99.90;;;;;;5156362;27;19955;-74
2022/04/20 09:13:38;;;;;;;;;;;12.00;99.90;;;;;;5155147;27;19914;-73
2022/04/20 09:16:10;;;;;;;;;;;12.00;99.90;;;;;;5155723;27;20415;-73
2022/04/20 09:18:37;;;;;;;;;;;11.90;99.90;;;;;;5154552;27;20560;-73
2022/04/20 09:21:15;;;;;;;;;;;12.00;99.90;;;;;;5155441;27;20071;-73
2022/04/20 09:23:41;;;;;;;;;;;12.00;99.90;;;;;;5154998;27;20017;-73
2022/04/20 09:26:11;;;;;;;;;;;11.90;99.90;;;;;;5155387;27;20352;-73
2022/04/20 09:28:37;;;;;;;;;;;12.00;99.90;;;;;;5154846;27;19903;-73
2022/04/20 09:31:04;;;;;;;;;;;12.00;99.90;;;;;;5155760;27;19907;-73
2022/04/20 09:33:43;;;;;;;;;;;12.10;99.90;;;;;;5154670;27;19955;-74
2022/04/20 09:36:08;;;;;;;;;;;12.20;99.90;;;;;;5136673;27;19930;-74
2022/04/20 09:38:37;;;;;;;;;;;12.20;99.90;;;;;;5154949;27;20339;-74
2022/04/20 09:41:09;;;;;;;;;;;12.30;99.90;;;;;;5155550;27;19915;-74
2022/04/20 09:43:35;;;;;;;;;;;12.30;99.90;;;;;;5154522;27;19946;-74
2022/04/20 09:46:04;;;;;;;;;;;12.30;99.90;;;;;;5154805;27;19949;-74
2022/04/20 09:51:20;;;;;;;;;;;12.30;99.90;;;;;;5155468;27;19914;-74
2022/04/20 09:53:48;;;;;;;;;;;12.30;99.90;;;;;;5136690;27;20283;-74
2022/04/20 09:56:21;;;;;;;;;;;12.40;99.90;;;;;;5155231;27;19927;-74
2022/04/20 09:58:56;;;;;;;;;;;12.30;99.90;;;;;;5155063;27;19914;-75
2022/04/20 10:01:25;;;;;;;;;;;12.40;99.90;;;;;;5135369;27;21404;-74
2022/04/20 10:03:55;;;;;;;;;;;12.40;99.90;;;;;;5154970;27;19929;-74
2022/04/20 10:06:21;;;;;;;;;;;12.50;99.90;;;;;;5153923;27;19911;-75
2022/04/20 10:08:46;;;;;;;;;;;12.40;99.90;;;;;;5154852;27;19911;-74
2022/04/20 10:11:13;;;;;;;;;;;12.40;99.90;;;;;;5154804;27;19914;-75
2022/04/20 10:13:39;;;;;;;;;;;12.40;99.90;;;;;;5154807;27;19911;-75
2022/04/20 10:16:07;;;;;;;;;;;12.40;99.90;;;;;;5154227;27;19915;-74
2022/04/20 10:18:39;;;;;;;;;;;12.30;99.90;;;;;;5154081;27;19914;-75
2022/04/20 10:21:11;;;;;;;;;;;12.40;99.90;;;;;;5154581;27;20283;-74
2022/04/20 10:23:43;;;;;;;;;;;12.40;99.90;;;;;;5154024;27;20392;-72
2022/04/20 10:26:09;;;;;;;;;;;12.50;99.90;;;;;;5154123;27;20240;-74
2022/04/20 10:28:55;;;;;;;;;;;12.60;99.90;;;;;;5153595;27;20352;-74
2022/04/20 10:31:24;;;;;;;;;;;12.70;99.90;;;;;;5138864;27;19921;-74
2022/04/20 10:33:50;;;;;;;;;;;12.90;99.90;;;;;;5154927;27;19973;-74
2022/04/20 10:36:17;;;;;;;;;;;12.90;99.90;;;;;;5154100;27;19942;-74
2022/04/20 10:38:45;;;;;;;;;;;13.00;99.90;;;;;;5135353;27;20117;-74
2022/04/20 10:41:12;;;;;;;;;;;13.00;99.90;;;;;;5135956;27;20275;-74
2022/04/20 10:43:44;;;;;;;;;;;13.10;99.90;;;;;;5153685;27;19907;-74
2022/04/20 10:46:11;;;;;;;;;;;13.10;99.90;;;;;;5153725;27;20390;-74
2022/04/20 10:48:49;;;;;;;;;;;13.10;99.90;;;;;;5153152;27;20361;-74
2022/04/20 10:51:16;;;;;;;;;;;13.10;99.90;;;;;;5154106;27;20496;-74
2022/04/20 10:53:43;;;;;;;;;;;13.10;99.90;;;;;;5153755;27;19907;-74
2022/04/20 10:56:09;;;;;;;;;;;13.00;99.90;;;;;;5153835;27;20444;-74
2022/04/20 10:58:35;;;;;;;;;;;13.20;99.90;;;;;;5153638;27;19911;-74
2022/04/20 11:01:08;;;;;;;;;;;13.10;99.90;;;;;;5154091;27;19925;-74
2022/04/20 11:03:53;;;;;;;;;;;13.20;99.90;;;;;;5153327;27;20304;-73
2022/04/20 11:06:19;;;;;;;;;;;13.20;99.90;;;;;;5153789;27;19911;-73
2022/04/20 11:08:44;;;;;;;;;;;13.20;99.90;;;;;;5135172;27;19907;-75
2022/04/20 11:19:49;;;;;;;;;;;13.10;99.90;;;;;;5153620;27;19961;-74
2022/04/20 11:22:15;;;;;;;;;;;13.10;99.90;;;;;;5153883;27;19928;-74
2022/04/20 11:24:41;;;;;;;;;;;13.10;99.90;;;;;;5153117;27;19903;-74
2022/04/20 11:27:07;;;;;;;;;;;13.20;99.90;;;;;;5154040;27;19989;-73
2022/04/20 11:29:33;;;;;;;;;;;13.30;99.90;;;;;;5157150;27;20310;-75
2022/04/20 11:31:59;;;;;;;;;;;13.30;99.90;;;;;;5157546;27;19914;-74
2022/04/20 11:34:28;;;;;;;;;;;13.40;99.90;;;;;;5157136;27;20443;-75
2022/04/20 11:36:57;;;;;;;;;;;13.40;99.90;;;;;;5157046;27;20355;-74
2022/04/20 11:39:23;;;;;;;;;;;13.40;99.90;;;;;;5156513;27;19947;-74
2022/04/20 11:41:51;;;;;;;;;;;13.40;99.90;;;;;;5157485;27;20024;-74
2022/04/20 11:44:19;;;;;;;;;;;13.40;99.90;;;;;;5157420;27;19907;-74
2022/04/20 11:46:45;;;;;;;;;;;13.30;99.90;;;;;;5156983;27;19907;-74
2022/04/20 11:49:11;;;;;;;;;;;13.20;99.90;;;;;;5157094;27;19914;-74
2022/04/20 11:51:37;;;;;;;;;;;13.20;99.90;;;;;;5138465;27;20355;-74
2022/04/20 11:54:03;;;;;;;;;;;13.20;99.90;;;;;;5157197;27;19911;-74
2022/04/20 11:56:38;;;;;;;;;;;13.20;99.90;;;;;;5157209;27;19976;-74
2022/04/20 11:59:06;;;;;;;;;;;13.10;99.90;;;;;;5157585;27;20009;-75
2022/04/20 12:01:33;;;;;;;;;;;13.20;99.90;;;;;;5156791;27;20359;-75
2022/04/20 12:04:19;;;;;;;;;;;13.20;99.90;;;;;;5157571;27;19911;-75
2022/04/20 12:06:45;;;;;;;;;;;13.40;99.90;;;;;;5155652;27;19951;-75
2022/04/20 12:09:11;;;;;;;;;;;13.50;99.90;;;;;;5157238;27;19931;-75
2022/04/20 12:11:36;;;;;;;;;;;13.60;99.90;;;;;;5157015;27;20344;-75
2022/04/20 12:14:03;;;;;;;;;;;13.70;99.90;;;;;;5157180;27;19907;-75
2022/04/20 12:16:33;;;;;;;;;;;13.70;99.90;;;;;;5156420;27;19957;-75
2022/04/20 12:18:59;;;;;;;;;;;13.50;99.90;;;;;;5156783;27;19911;-75
2022/04/20 12:21:43;;;;;;;;;;;13.40;99.90;;;;;;5156951;27;20363;-73
2022/04/20 12:24:10;;;;;;;;;;;13.50;99.90;;;;;;5156914;27;19914;-74
2022/04/20 12:26:42;;;;;;;;;;;13.40;99.90;;;;;;5156129;27;19963;-74
2022/04/20 12:29:08;;;;;;;;;;;13.40;99.90;;;;;;5157194;27;19968;-73
2022/04/20 12:31:33;;;;;;;;;;;13.50;99.90;;;;;;5155929;27;20351;-73
2022/04/20 12:34:03;;;;;;;;;;;13.50;99.90;;;;;;5147883;27;20367;-73
2022/04/20 12:36:32;;;;;;;;;;;13.60;99.90;;;;;;5135899;27;19947;-74
2022/04/20 12:38:58;;;;;;;;;;;13.60;99.90;;;;;;5135167;27;20412;-74
2022/04/20 12:41:34;;;;;;;;;;;13.60;99.90;;;;;;5135361;27;20371;-74
2022/04/20 12:44:00;;;;;;;;;;;13.50;99.90;;;;;;5135232;27;20477;-73
2022/04/20 12:46:33;;;;;;;;;;;13.40;99.90;;;;;;5134652;27;19916;-75
2022/04/20 12:48:59;;;;;;;;;;;13.50;99.90;;;;;;5135770;27;19962;-74
2022/04/20 12:51:25;;;;;;;;;;;13.70;99.90;;;;;;5135128;27;20220;-74
2022/04/20 12:53:51;;;;;;;;;;;13.60;99.90;;;;;;5135510;27;19907;-74
2022/04/20 13:02:03;;;;;;;;;;;13.50;99.90;;;;;;5134982;27;19913;-74
2022/04/20 13:04:28;;;;;;;;;;;13.50;99.90;;;;;;5141661;27;19911;-74
2022/04/20 13:06:55;;;;;;;;;;;13.50;99.90;;;;;;5134889;27;20291;-74
2022/04/20 13:09:21;;;;;;;;;;;13.50;99.90;;;;;;5135233;27;19939;-74
2022/04/20 13:11:46;;;;;;;;;;;13.50;99.90;;;;;;5122522;27;19950;-74
2022/04/20 13:14:12;;;;;;;;;;;13.50;99.90;;;;;;5133441;27;20375;-74
2022/04/20 13:16:37;;;;;;;;;;;13.60;99.90;;;;;;5134523;27;19914;-74
2022/04/20 13:19:03;;;;;;;;;;;13.60;99.90;;;;;;5150952;27;19914;-74
2022/04/20 13:21:29;;;;;;;;;;;13.60;99.90;;;;;;5154856;27;19911;-73
2022/04/20 13:23:55;;;;;;;;;;;13.60;99.90;;;;;;5154863;27;19907;-74
2022/04/20 13:29:05;;;;;;;;;;;13.90;99.90;;;;;;5125848;27;20066;-74
2022/04/20 13:31:31;;;;;;;;;;;14.00;99.90;;;;;;5125961;27;19923;-75
2022/04/20 13:33:57;;;;;;;;;;;14.10;99.90;;;;;;5134424;27;19923;-74
2022/04/20 13:36:22;;;;;;;;;;;14.10;99.90;;;;;;5134599;27;20364;-75
2022/04/20 13:38:48;;;;;;;;;;;14.10;99.90;;;;;;5134029;27;19911;-75
2022/04/20 13:41:13;;;;;;;;;;;14.20;99.90;;;;;;5134681;27;19915;-75
2022/04/20 13:43:39;;;;;;;;;;;14.30;99.90;;;;;;5133949;27;19956;-75
2022/04/20 13:46:05;;;;;;;;;;;14.30;99.90;;;;;;5116386;27;19915;-74
2022/04/20 13:48:30;;;;;;;;;;;14.30;99.90;;;;;;5134061;27;20002;-75
2022/04/20 13:50:56;;;;;;;;;;;14.30;99.90;;;;;;5134041;27;19961;-74
2022/04/20 13:53:22;;;;;;;;;;;14.30;99.90;;;;;;5134726;27;19960;-74
2022/04/20 13:55:48;;;;;;;;;;;14.40;99.90;;;;;;5135790;27;20519;-74
2022/04/20 13:58:13;;;;;;;;;;;14.40;99.90;;;;;;5154663;27;19929;-74
2022/04/20 14:00:40;;;;;;;;;;;14.40;99.90;;;;;;5154658;27;19919;-75
2022/04/20 14:03:07;;;;;;;;;;;14.40;99.90;;;;;;5155225;27;19907;-75
2022/04/20 14:05:32;;;;;;;;;;;14.50;99.90;;;;;;5154341;27;20018;-75
2022/04/20 14:07:58;;;;;;;;;;;14.50;99.90;;;;;;5155025;27;20002;-75
2022/04/20 14:10:23;;;;;;;;;;;14.50;99.90;;;;;;5154994;27;19907;-75
2022/04/20 14:12:49;;;;;;;;;;;14.50;99.90;;;;;;5151901;27;19911;-75
2022/04/20 14:15:16;;;;;;;;;;;14.60;99.90;;;;;;5153877;27;20238;-76
2022/04/20 14:17:44;;;;;;;;;;;14.70;99.90;;;;;;5153796;27;19917;-75
2022/04/20 14:20:10;;;;;;;;;;;14.60;99.90;;;;;;5154159;27;19926;-75
2022/04/20 14:22:36;;;;;;;;;;;14.70;99.90;;;;;;5135207;27;20352;-76
2022/04/20 14:33:13;;;;;;;;;;;14.60;99.90;;;;;;5154373;27;20275;-75
2022/04/20 14:35:39;;;;;;;;;;;14.70;99.90;;;;;;5153590;27;19911;-75
2022/04/20 14:38:05;;;;;;;;;;;14.80;99.90;;;;;;5154149;27;19914;-75
2022/04/20 14:40:31;;;;;;;;;;;14.70;99.90;;;;;;5153980;27;19922;-75
2022/04/20 14:42:57;;;;;;;;;;;14.90;99.90;;;;;;5154639;27;20317;-75
2022/04/20 14:45:23;;;;;;;;;;;14.90;99.90;;;;;;5135557;27;20002;-75
2022/04/20 14:47:49;;;;;;;;;;;15.00;99.90;;;;;;5153811;27;19972;-76
2022/04/20 14:50:16;;;;;;;;;;;15.00;99.90;;;;;;5154314;27;20419;-76
2022/04/20 14:52:43;;;;;;;;;;;15.00;99.90;;;;;;5134843;27;20283;-75
2022/04/20 14:55:09;;;;;;;;;;;14.90;99.90;;;;;;5153696;27;20328;-76
2022/04/20 14:57:35;;;;;;;;;;;14.80;99.90;;;;;;5153435;27;19907;-76
2022/04/20 15:00:01;;;;;;;;;;;14.70;99.90;;;;;;5154035;27;19916;-77
2022/04/20 15:02:26;;;;;;;;;;;14.80;99.90;;;;;;5157815;27;19910;-76
2022/04/20 15:04:52;;;;;;;;;;;14.70;99.90;;;;;;5160007;27;19918;-75
2022/04/20 15:07:18;;;;;;;;;;;14.70;99.90;;;;;;5160876;27;20276;-77
2022/04/20 15:09:45;;;;;;;;;;;14.70;99.90;;;;;;5160440;27;19907;-77
2022/04/20 15:12:11;;;;;;;;;;;14.90;99.90;;;;;;5161030;27;19949;-77